Mashhad, Iran
Current Conditions -  °F | °C
As of 12:00 AM on Wednesday 22 Oct 2014 (Local Time) from OIMM Reporting Station
Haze Haze  
Wind Chill: 59°   Ceiling: Unl
Heat Index: 59°   Visibility: 2.5mi
Dew Point: 48°   Wind: 9mph
Humidity: 67%   Direction: 300°WNW
Pressure: 29.94"   Gusts: NA
Location:  36.27°N, 59.57°E
Report Text: OIMM 212000Z 30008KT 4000 HZ NSC 15/09 Q1014 A2995
Loading
Personal Weather Stations






























Interactive Weather Map
Tropical Storm Tracking
New forecast layout! Learn more

10-Day Weather Forecast

Advertisements
Track Severe Weather on mobile